createdAt,value
2023-02-03T00:02:25.890Z,-1.62
2023-02-03T00:04:53.253Z,-1.09
2023-02-03T00:07:21.047Z,-1.13
2023-02-03T00:09:48.490Z,-1.06
2023-02-03T00:12:15.812Z,-1.68
2023-02-03T00:14:43.499Z,-0.99
2023-02-03T00:17:10.800Z,-1.06
2023-02-03T00:19:40.119Z,-1.06
2023-02-03T00:22:08.494Z,-1.10
2023-02-03T00:24:36.053Z,-1.67
2023-02-03T00:27:03.537Z,-1.15
2023-02-03T00:29:30.894Z,-1.06
2023-02-03T00:31:59.374Z,-1.00
2023-02-03T00:34:31.020Z,-1.96
2023-02-03T00:36:58.947Z,-1.38
2023-02-03T00:39:26.371Z,-0.89
2023-02-03T00:41:53.862Z,-0.90
2023-02-03T00:44:22.821Z,-1.57
2023-02-03T00:46:51.124Z,-1.01
2023-02-03T00:49:18.833Z,-1.32
2023-02-03T00:51:46.695Z,-1.70
2023-02-03T00:54:14.806Z,-1.09
2023-02-03T00:56:42.241Z,-1.73
2023-02-03T00:59:10.440Z,-1.56
2023-02-03T01:01:38.378Z,-1.07
2023-02-03T01:04:06.214Z,-1.26
2023-02-03T01:06:34.854Z,-1.06
2023-02-03T01:09:03.368Z,-0.98
2023-02-03T01:11:32.481Z,-0.98
2023-02-03T01:14:01.941Z,-1.09
2023-02-03T01:16:31.223Z,-1.00
2023-02-03T01:18:58.733Z,-0.91
2023-02-03T01:21:27.310Z,-0.84
2023-02-03T01:23:56.317Z,-0.90
2023-02-03T01:26:28.660Z,-0.88
2023-02-03T01:28:58.725Z,-0.82
2023-02-03T01:31:32.352Z,-0.98
2023-02-03T01:34:00.373Z,-1.46
2023-02-03T01:36:30.973Z,-0.93
2023-02-03T01:38:58.726Z,-1.18
2023-02-03T01:41:33.682Z,-0.92
2023-02-03T01:44:03.095Z,-2.00
2023-02-03T01:46:36.121Z,-1.00
2023-02-03T01:49:06.945Z,-0.96
2023-02-03T01:51:35.803Z,-0.95
2023-02-03T01:54:03.968Z,-1.01
2023-02-03T01:56:37.587Z,-2.13
2023-02-03T01:59:05.779Z,-0.95
2023-02-03T02:01:35.170Z,-1.00
2023-02-03T02:04:04.490Z,-1.07
2023-02-03T02:06:31.974Z,-0.99
2023-02-03T02:09:01.131Z,-2.09
2023-02-03T02:11:29.587Z,-0.83
2023-02-03T02:14:02.471Z,-0.86
2023-02-03T02:17:06.828Z,-0.88
2023-02-03T02:20:14.719Z,-0.83
2023-02-03T02:23:20.419Z,-0.79
2023-02-03T02:26:27.829Z,-0.72
2023-02-03T02:29:19.450Z,-0.79
2023-02-03T02:32:08.621Z,-0.79
2023-02-03T02:34:48.345Z,-0.72
2023-02-03T02:37:34.921Z,-0.71
2023-02-03T02:40:19.324Z,-0.77
2023-02-03T02:43:04.285Z,-0.86
2023-02-03T02:45:49.983Z,-0.80
2023-02-03T02:48:40.398Z,-0.75
2023-02-03T02:51:12.718Z,-0.79
2023-02-03T02:53:46.307Z,-0.96
2023-02-03T02:56:16.670Z,-0.83
2023-02-03T02:58:47.528Z,-1.46
2023-02-03T03:01:17.598Z,-0.85
2023-02-03T03:03:45.653Z,-0.92
2023-02-03T03:06:30.357Z,-1.00
2023-02-03T03:09:44.645Z,-1.05
2023-02-03T03:12:22.055Z,-1.00
2023-02-03T03:15:03.848Z,-1.52
2023-02-03T03:17:41.127Z,-0.90
2023-02-03T03:20:13.892Z,-0.90
2023-02-03T03:23:05.551Z,-1.40
2023-02-03T03:25:41.125Z,-0.83
2023-02-03T03:28:24.565Z,-0.76
2023-02-03T03:30:52.740Z,-1.62
2023-02-03T03:33:22.196Z,-0.76
2023-02-03T03:35:54.359Z,-0.80
2023-02-03T03:38:33.227Z,-0.65
2023-02-03T03:41:18.213Z,-0.46
2023-02-03T03:43:48.416Z,-0.45
2023-02-03T03:46:26.228Z,-0.51
2023-02-03T03:49:01.909Z,-0.54
2023-02-03T03:51:37.569Z,-0.53
2023-02-03T03:54:11.267Z,-0.54
2023-02-03T03:56:48.034Z,-0.58
2023-02-03T03:59:20.470Z,-0.48
2023-02-03T04:01:50.999Z,-0.40
2023-02-03T04:04:19.932Z,-0.43
2023-02-03T04:06:47.263Z,-0.47
2023-02-03T04:09:14.831Z,-0.94
2023-02-03T04:12:00.761Z,-0.39
2023-02-03T04:14:36.046Z,-0.39
2023-02-03T04:17:03.399Z,-0.31
2023-02-03T04:19:31.076Z,-0.15
2023-02-03T04:21:58.844Z,-0.12
2023-02-03T04:24:26.532Z,-0.14
2023-02-03T04:26:54.086Z,-0.67
2023-02-03T04:29:21.568Z,-0.17
2023-02-03T04:31:49.213Z,-0.36
2023-02-03T04:34:17.448Z,-1.07
2023-02-03T04:36:45.293Z,-0.36
2023-02-03T04:39:12.765Z,-0.49
2023-02-03T04:41:40.271Z,-0.99
2023-02-03T04:44:07.907Z,-0.10
2023-02-03T04:46:35.716Z,-0.12
2023-02-03T04:49:03.450Z,-0.99
2023-02-03T04:51:31.435Z,-0.12
2023-02-03T04:53:58.820Z,-0.04
2023-02-03T04:56:26.501Z,-0.20
2023-02-03T04:58:54.188Z,-0.03
2023-02-03T05:01:21.777Z,0.00
2023-02-03T05:03:49.973Z,0.08
2023-02-03T05:06:17.393Z,0.34
2023-02-03T05:08:44.763Z,0.07
2023-02-03T05:11:12.425Z,0.31
2023-02-03T05:13:39.837Z,0.00
2023-02-03T05:16:07.420Z,-0.19
2023-02-03T05:18:34.974Z,0.23
2023-02-03T05:21:02.671Z,0.25
2023-02-03T05:23:30.071Z,-0.12
2023-02-03T05:25:57.566Z,0.55
2023-02-03T05:28:25.156Z,0.70
2023-02-03T05:30:52.868Z,0.22
2023-02-03T05:33:20.803Z,0.82
2023-02-03T05:35:48.376Z,0.81
2023-02-03T05:38:16.011Z,0.78
2023-02-03T05:41:01.961Z,0.76
2023-02-03T05:43:29.976Z,0.57
2023-02-03T05:46:01.591Z,0.68
2023-02-03T05:48:29.999Z,0.83
2023-02-03T05:50:57.884Z,0.62
2023-02-03T05:53:26.474Z,0.74
2023-02-03T05:55:54.307Z,-0.22
2023-02-03T05:58:22.417Z,0.82
2023-02-03T06:00:49.936Z,0.38
2023-02-03T06:03:17.448Z,0.84
2023-02-03T06:05:45.216Z,0.86
2023-02-03T06:08:12.729Z,0.53
2023-02-03T06:10:40.318Z,1.04
2023-02-03T06:13:16.307Z,1.08
2023-02-03T06:15:44.551Z,0.96
2023-02-03T06:18:12.031Z,0.42
2023-02-03T06:20:39.312Z,0.84
2023-02-03T06:23:06.776Z,0.85
2023-02-03T06:25:34.445Z,-0.12
2023-02-03T06:28:01.897Z,0.85
2023-02-03T06:30:29.927Z,0.68
2023-02-03T06:32:57.676Z,0.82
2023-02-03T06:35:25.089Z,0.87
2023-02-03T06:37:52.820Z,0.80
2023-02-03T06:40:20.692Z,0.93
2023-02-03T06:42:48.728Z,0.97
2023-02-03T06:45:17.599Z,0.64
2023-02-03T06:47:45.778Z,1.16
2023-02-03T06:50:15.616Z,1.32
2023-02-03T06:52:44.388Z,1.07
2023-02-03T06:55:12.263Z,1.34
2023-02-03T06:57:48.136Z,1.39
2023-02-03T07:00:26.422Z,1.42
2023-02-03T07:02:55.784Z,0.32
2023-02-03T07:05:24.296Z,1.09
2023-02-03T07:07:52.533Z,1.11
2023-02-03T07:10:20.397Z,1.13
2023-02-03T07:12:48.200Z,1.28
2023-02-03T07:15:15.643Z,1.50
2023-02-03T07:17:43.584Z,0.67
2023-02-03T07:20:11.675Z,1.24
2023-02-03T07:22:40.879Z,1.24
2023-02-03T07:25:08.755Z,1.25
2023-02-03T07:27:36.385Z,1.23
2023-02-03T07:30:04.865Z,1.51
2023-02-03T07:32:33.864Z,1.45
2023-02-03T07:35:01.675Z,1.38
2023-02-03T07:37:31.027Z,0.92
2023-02-03T07:39:58.584Z,1.36
2023-02-03T07:42:25.957Z,1.31
2023-02-03T07:44:53.446Z,0.31
2023-02-03T07:47:21.370Z,1.43
2023-02-03T07:49:48.882Z,1.30
2023-02-03T07:52:17.120Z,0.75
2023-02-03T07:54:44.997Z,1.25
2023-02-03T07:57:12.226Z,1.18
2023-02-03T07:59:39.954Z,1.26
2023-02-03T08:02:09.499Z,1.38
2023-02-03T08:04:37.536Z,1.27
2023-02-03T08:07:05.354Z,1.33
2023-02-03T08:09:33.141Z,1.33
2023-02-03T08:12:00.698Z,0.76
2023-02-03T08:14:28.117Z,0.98
2023-02-03T08:16:55.770Z,1.78
2023-02-03T08:19:23.385Z,1.66
2023-02-03T08:21:51.681Z,1.30
2023-02-03T08:24:19.500Z,1.84
2023-02-03T08:26:47.334Z,1.22
2023-02-03T08:29:14.888Z,1.51
2023-02-03T08:31:43.333Z,1.53
2023-02-03T08:34:11.012Z,0.72
2023-02-03T08:36:40.192Z,0.81
2023-02-03T08:39:08.032Z,1.50
2023-02-03T08:41:35.622Z,1.52
2023-02-03T08:44:03.163Z,1.65
2023-02-03T08:46:30.722Z,1.36
2023-02-03T08:48:58.208Z,0.63
2023-02-03T08:51:26.254Z,1.47
2023-02-03T08:53:54.271Z,1.50
2023-02-03T08:56:22.054Z,0.97
2023-02-03T08:58:49.817Z,0.96
2023-02-03T09:01:17.608Z,1.02
2023-02-03T09:03:45.040Z,1.47
2023-02-03T09:06:16.772Z,1.46
2023-02-03T09:08:46.404Z,0.67
2023-02-03T09:11:16.268Z,1.52
2023-02-03T09:13:47.137Z,1.61
2023-02-03T09:16:17.677Z,1.67
2023-02-03T09:18:45.876Z,1.77
2023-02-03T09:21:32.073Z,1.97
2023-02-03T09:24:03.812Z,1.53
2023-02-03T09:26:31.727Z,1.98
2023-02-03T09:28:59.655Z,1.78
2023-02-03T09:31:27.569Z,1.28
2023-02-03T09:33:55.522Z,1.67
2023-02-03T09:36:22.933Z,1.15
2023-02-03T09:38:50.271Z,1.29
2023-02-03T09:41:32.629Z,1.64
2023-02-03T09:44:24.818Z,1.04
2023-02-03T09:46:57.428Z,1.61
2023-02-03T09:49:39.013Z,1.56
2023-02-03T09:52:16.091Z,1.83
2023-02-03T09:55:04.492Z,2.00
2023-02-03T09:57:40.836Z,2.08
2023-02-03T10:00:21.178Z,1.94
2023-02-03T10:03:04.457Z,1.96
2023-02-03T10:05:44.030Z,1.86
2023-02-03T10:08:35.259Z,1.72
2023-02-03T10:11:25.457Z,1.61
2023-02-03T10:14:08.151Z,1.74
2023-02-03T10:16:41.703Z,1.82
2023-02-03T10:19:20.926Z,1.83
2023-02-03T10:21:58.828Z,1.81
2023-02-03T10:24:37.547Z,1.46
2023-02-03T10:27:05.159Z,2.10
2023-02-03T10:29:43.048Z,1.95
2023-02-03T10:32:12.120Z,2.04
2023-02-03T10:34:40.221Z,1.69
2023-02-03T10:37:30.210Z,1.82
2023-02-03T10:40:01.871Z,1.34
2023-02-03T10:42:53.255Z,1.97
2023-02-03T10:45:21.298Z,2.06
2023-02-03T10:47:59.369Z,1.46
2023-02-03T10:50:33.903Z,2.15
2023-02-03T10:53:22.963Z,2.19
2023-02-03T10:56:14.331Z,2.24
2023-02-03T10:58:59.429Z,2.21
2023-02-03T11:01:39.275Z,1.87
2023-02-03T11:04:23.897Z,2.24
2023-02-03T11:06:57.724Z,2.35
2023-02-03T11:09:40.202Z,2.36
2023-02-03T11:12:16.294Z,2.09
2023-02-03T11:14:47.285Z,2.17
2023-02-03T11:17:19.236Z,2.21
2023-02-03T11:19:49.233Z,1.85
2023-02-03T11:22:38.417Z,1.49
2023-02-03T11:25:19.510Z,1.96
2023-02-03T11:27:50.407Z,2.49
2023-02-03T11:30:32.272Z,2.44
2023-02-03T11:33:03.987Z,2.44
2023-02-03T11:35:33.796Z,1.89
2023-02-03T11:38:02.506Z,1.84
2023-02-03T11:40:32.738Z,2.25
2023-02-03T11:43:16.710Z,2.26
2023-02-03T11:45:47.829Z,2.19
2023-02-03T11:48:33.589Z,2.24
2023-02-03T11:51:19.183Z,2.25
2023-02-03T11:53:57.530Z,1.85
2023-02-03T11:57:02.159Z,2.36
2023-02-03T11:59:44.840Z,2.37
2023-02-03T12:02:49.426Z,2.21
2023-02-03T12:05:38.213Z,2.14
2023-02-03T12:08:12.969Z,2.06
2023-02-03T12:10:55.746Z,2.07
2023-02-03T12:13:51.233Z,2.08
2023-02-03T12:16:28.095Z,2.13
2023-02-03T12:19:32.027Z,2.19
2023-02-03T12:22:26.076Z,2.25
2023-02-03T12:24:59.731Z,2.15
2023-02-03T12:27:56.603Z,1.58
2023-02-03T12:30:39.862Z,1.98
2023-02-03T12:33:17.725Z,1.96
2023-02-03T12:36:11.652Z,1.74
2023-02-03T12:38:48.528Z,1.31
2023-02-03T12:41:46.677Z,1.75
2023-02-03T12:44:26.211Z,1.17
2023-02-03T12:47:25.241Z,1.55
2023-02-03T12:49:58.900Z,1.67
2023-02-03T12:52:38.120Z,1.62
2023-02-03T12:55:28.903Z,1.56
2023-02-03T12:58:03.352Z,1.56
2023-02-03T13:00:59.323Z,1.62
2023-02-03T13:03:32.938Z,1.33
2023-02-03T13:06:20.668Z,1.78
2023-02-03T13:08:56.018Z,1.65
2023-02-03T13:11:32.446Z,1.54
2023-02-03T13:14:31.062Z,1.41
2023-02-03T13:17:28.286Z,1.36
2023-02-03T13:20:02.726Z,1.42
2023-02-03T13:22:30.741Z,1.41
2023-02-03T13:25:23.535Z,0.54
2023-02-03T13:28:01.027Z,1.34
2023-02-03T13:30:47.090Z,1.40
2023-02-03T13:33:36.845Z,1.44
2023-02-03T13:36:31.876Z,1.45
2023-02-03T13:39:33.066Z,1.32
2023-02-03T13:42:30.510Z,0.37
2023-02-03T13:45:06.617Z,0.65
2023-02-03T13:47:34.462Z,1.03
2023-02-03T13:50:20.941Z,0.95
2023-02-03T13:53:08.905Z,1.01
2023-02-03T13:55:55.235Z,1.00
2023-02-03T13:58:32.859Z,0.98
2023-02-03T14:01:07.585Z,0.82
2023-02-03T14:03:35.030Z,0.94
2023-02-03T14:06:03.816Z,0.10
2023-02-03T14:08:31.632Z,0.76
2023-02-03T14:11:36.259Z,0.20
2023-02-03T14:14:12.475Z,0.60
2023-02-03T14:16:54.795Z,0.48
2023-02-03T14:19:22.581Z,0.46
2023-02-03T14:21:59.020Z,0.42
2023-02-03T14:24:42.895Z,0.03
2023-02-03T14:27:30.423Z,0.47
2023-02-03T14:30:11.146Z,0.47
2023-02-03T14:33:00.313Z,-0.25
2023-02-03T14:35:35.667Z,0.55
2023-02-03T14:38:15.389Z,0.56
2023-02-03T14:41:03.248Z,0.53
2023-02-03T14:43:45.819Z,0.47
2023-02-03T14:46:42.438Z,0.37
2023-02-03T14:49:19.096Z,0.40
2023-02-03T14:52:27.922Z,0.28
2023-02-03T14:55:13.407Z,0.18
2023-02-03T14:57:44.349Z,0.16
2023-02-03T15:00:21.918Z,0.17
2023-02-03T15:03:10.696Z,0.18
2023-02-03T15:05:49.721Z,0.09
2023-02-03T15:08:43.050Z,0.35
2023-02-03T15:11:27.770Z,0.36
2023-02-03T15:13:58.383Z,-0.19
2023-02-03T15:16:27.417Z,0.52
2023-02-03T15:19:00.970Z,0.53
2023-02-03T15:21:28.647Z,-0.49
2023-02-03T15:23:56.213Z,0.22
2023-02-03T15:26:27.396Z,0.10
2023-02-03T15:29:03.587Z,0.18
2023-02-03T15:31:44.301Z,0.32
2023-02-03T15:34:22.185Z,0.38
2023-02-03T15:36:54.439Z,-0.07
2023-02-03T15:39:39.242Z,-0.79
2023-02-03T15:42:14.798Z,0.40
2023-02-03T15:44:49.601Z,0.22
2023-02-03T15:47:40.576Z,-0.23
2023-02-03T15:50:41.922Z,0.52
2023-02-03T15:53:41.114Z,0.50
2023-02-03T15:56:21.778Z,0.38
2023-02-03T15:58:50.352Z,0.47
2023-02-03T16:01:23.707Z,0.56
2023-02-03T16:03:54.630Z,0.52
2023-02-03T16:06:27.389Z,0.66
2023-02-03T16:08:56.163Z,0.58
2023-02-03T16:11:39.357Z,0.52
2023-02-03T16:18:00.072Z,-0.22
2023-02-03T16:20:33.586Z,-0.22
2023-02-03T16:23:18.888Z,0.19
2023-02-03T16:26:17.704Z,-0.18
2023-02-03T16:29:22.795Z,-0.04
2023-02-03T16:32:09.192Z,0.34
2023-02-03T16:34:56.058Z,-0.50
2023-02-03T16:37:48.760Z,0.13
2023-02-03T16:43:59.120Z,-0.71
2023-02-03T16:46:45.020Z,0.15
2023-02-03T16:49:31.399Z,-0.15
2023-02-03T16:51:58.993Z,0.36
2023-02-03T16:54:30.934Z,-0.19
2023-02-03T16:56:59.011Z,0.39
2023-02-03T16:59:26.501Z,0.12
2023-02-03T17:01:59.712Z,0.50
2023-02-03T17:04:29.597Z,0.49
2023-02-03T17:06:57.440Z,0.44
2023-02-03T17:09:25.814Z,-0.14
2023-02-03T17:11:57.424Z,0.43
2023-02-03T17:14:26.852Z,-0.09
2023-02-03T17:16:54.465Z,-0.30
2023-02-03T17:19:22.152Z,0.59
2023-02-03T17:21:51.674Z,-0.04
2023-02-03T17:24:19.757Z,-0.08
2023-02-03T17:26:50.680Z,-0.06
2023-02-03T17:29:18.470Z,-0.27
2023-02-03T17:31:48.970Z,-0.26
2023-02-03T17:34:19.500Z,0.24
2023-02-03T17:36:47.339Z,0.33
2023-02-03T17:55:38.420Z,0.36
2023-02-03T17:58:05.745Z,0.18
2023-02-03T18:00:38.551Z,0.01
2023-02-03T18:03:06.316Z,0.59
2023-02-03T18:05:37.858Z,0.59
2023-02-03T18:08:16.073Z,0.54
2023-02-03T18:10:44.385Z,0.09
2023-02-03T18:13:12.016Z,0.38
2023-02-03T18:15:41.841Z,0.52
2023-02-03T18:18:14.217Z,0.41
2023-02-03T18:20:42.563Z,0.52
2023-02-03T18:23:09.957Z,0.47
2023-02-03T18:25:38.553Z,0.43
2023-02-03T18:28:06.396Z,0.00
2023-02-03T18:30:33.969Z,0.51
2023-02-03T18:33:02.418Z,0.56
2023-02-03T18:35:30.724Z,0.56
2023-02-03T18:37:58.067Z,0.59
2023-02-03T18:40:26.023Z,0.69
2023-02-03T18:42:56.558Z,0.75
2023-02-03T18:45:23.968Z,0.68
2023-02-03T18:47:51.376Z,0.71
2023-02-03T18:50:19.398Z,0.39
2023-02-03T18:52:46.875Z,0.70
2023-02-03T18:55:14.664Z,0.63
2023-02-03T18:57:42.558Z,0.64
2023-02-03T19:00:10.676Z,0.67
2023-02-03T19:02:38.108Z,0.69
2023-02-03T19:05:06.561Z,0.72
2023-02-03T19:07:34.354Z,0.34
2023-02-03T19:10:08.410Z,0.13
2023-02-03T19:12:42.204Z,0.71
2023-02-03T19:15:20.820Z,0.59
2023-02-03T19:17:53.732Z,-0.14
2023-02-03T19:20:22.460Z,0.51
2023-02-03T19:22:58.033Z,0.10
2023-02-03T19:25:25.912Z,-0.72
2023-02-03T19:27:53.579Z,0.60
2023-02-03T19:30:26.268Z,0.66
2023-02-03T19:32:54.065Z,0.00
2023-02-03T19:35:40.708Z,0.29
2023-02-03T19:38:13.390Z,0.50
2023-02-03T19:40:41.726Z,0.12
2023-02-03T19:43:10.228Z,0.73
2023-02-03T19:45:45.742Z,0.72
2023-02-03T19:48:18.171Z,0.52
2023-02-03T19:50:52.186Z,-0.09
2023-02-03T19:53:22.887Z,0.43
2023-02-03T19:55:57.782Z,0.53
2023-02-03T19:58:36.778Z,-0.29
2023-02-03T20:01:09.829Z,0.06
2023-02-03T20:03:37.491Z,-0.22
2023-02-03T20:06:05.660Z,0.39
2023-02-03T20:08:52.868Z,-0.20
2023-02-03T20:11:25.673Z,0.36
2023-02-03T20:13:57.788Z,-0.77
2023-02-03T20:16:26.492Z,-0.42
2023-02-03T20:19:02.214Z,0.18
2023-02-03T20:21:33.506Z,-0.09
2023-02-03T20:24:02.078Z,0.19
2023-02-03T20:26:34.612Z,-0.57
2023-02-03T20:29:08.062Z,0.14
2023-02-03T20:31:41.592Z,-0.23
2023-02-03T20:34:09.842Z,0.01
2023-02-03T20:36:37.427Z,-0.49
2023-02-03T20:39:32.238Z,0.02
2023-02-03T20:42:23.986Z,-0.76
2023-02-03T20:44:51.765Z,0.15
2023-02-03T20:47:27.017Z,0.27
2023-02-03T20:50:00.361Z,0.05
2023-02-03T20:52:28.440Z,-0.13
2023-02-03T20:55:00.950Z,-1.20
2023-02-03T20:57:36.951Z,-0.88
2023-02-03T21:00:35.453Z,-0.59
2023-02-03T21:03:21.518Z,-0.50
2023-02-03T21:05:49.357Z,-0.43
2023-02-03T21:08:19.744Z,-0.36
2023-02-03T21:10:48.779Z,-0.12
2023-02-03T21:13:22.708Z,-0.11
2023-02-03T21:15:55.775Z,-0.02
2023-02-03T21:18:34.261Z,-0.15
2023-02-03T21:21:02.646Z,-0.12
2023-02-03T21:23:40.281Z,-0.25
2023-02-03T21:26:19.951Z,-0.33
2023-02-03T21:28:53.399Z,-0.46
2023-02-03T21:31:32.462Z,-1.61
2023-02-03T21:34:06.349Z,-0.44
2023-02-03T21:36:38.341Z,-0.38
2023-02-03T21:39:30.134Z,-0.97
2023-02-03T21:42:01.052Z,-0.42
2023-02-03T21:44:35.931Z,-1.29
2023-02-03T21:47:15.140Z,-0.45
2023-02-03T21:49:42.599Z,-0.47
2023-02-03T21:52:18.623Z,-0.70
2023-02-03T21:54:48.287Z,-0.40
2023-02-03T21:57:16.053Z,-0.36
2023-02-03T21:59:46.956Z,-0.38
2023-02-03T22:02:43.033Z,-0.44
2023-02-03T22:05:16.642Z,-0.43
2023-02-03T22:07:44.467Z,-0.49
2023-02-03T22:10:12.372Z,-0.50
2023-02-03T22:12:40.326Z,-0.36
2023-02-03T22:15:08.467Z,-0.88
2023-02-03T22:17:36.065Z,-0.62
2023-02-03T22:20:03.979Z,-0.41
2023-02-03T22:22:32.155Z,-0.05
2023-02-03T22:24:59.751Z,0.14
2023-02-03T22:27:27.681Z,-0.63
2023-02-03T22:29:56.769Z,0.06
2023-02-03T22:32:24.372Z,0.03
2023-02-03T22:34:51.816Z,0.10
2023-02-03T22:37:19.865Z,-0.36
2023-02-03T22:39:47.596Z,-0.15
2023-02-03T22:42:16.155Z,0.32
2023-02-03T22:44:44.044Z,0.27
2023-02-03T22:47:11.854Z,0.22
2023-02-03T22:49:39.181Z,0.02
2023-02-03T22:52:06.774Z,0.24
2023-02-03T22:54:36.935Z,0.15
2023-02-03T22:57:04.367Z,0.04
2023-02-03T22:59:32.207Z,-0.55
2023-02-03T23:02:00.008Z,-0.43
2023-02-03T23:04:28.589Z,-0.01
2023-02-03T23:06:56.353Z,0.07
2023-02-03T23:09:23.817Z,0.16
2023-02-03T23:11:51.358Z,-0.05
2023-02-03T23:14:19.224Z,0.12
2023-02-03T23:16:46.741Z,0.10
2023-02-03T23:19:14.313Z,0.11
2023-02-03T23:21:42.151Z,0.21
2023-02-03T23:24:09.779Z,0.32
2023-02-03T23:26:37.141Z,0.29
2023-02-03T23:29:05.184Z,0.35
2023-02-03T23:31:32.886Z,0.33
2023-02-03T23:34:19.274Z,0.38
2023-02-03T23:36:47.016Z,-0.60
2023-02-03T23:39:14.449Z,0.20
2023-02-03T23:41:42.244Z,0.47
2023-02-03T23:44:11.113Z,0.32
2023-02-03T23:46:38.456Z,0.26
2023-02-03T23:49:06.043Z,0.39
2023-02-03T23:51:33.787Z,0.39
2023-02-03T23:54:01.925Z,-0.68
2023-02-03T23:56:29.618Z,0.31
2023-02-03T23:58:57.209Z,0.37
